createdAt,value
2022-12-06T00:01:20.831Z,5.71
2022-12-06T00:04:27.911Z,5.71
2022-12-06T00:07:38.422Z,5.70
2022-12-06T00:10:47.037Z,5.59
2022-12-06T00:14:03.455Z,5.61
2022-12-06T00:17:10.916Z,5.61
2022-12-06T00:20:17.022Z,5.57
2022-12-06T00:23:31.395Z,5.55
2022-12-06T00:26:39.463Z,5.53
2022-12-06T00:29:46.264Z,5.55
2022-12-06T00:32:54.359Z,5.55
2022-12-06T00:36:02.892Z,5.60
2022-12-06T00:39:12.824Z,5.58
2022-12-06T00:42:20.681Z,5.59
2022-12-06T00:45:31.423Z,5.61
2022-12-06T00:48:40.964Z,5.56
2022-12-06T00:51:46.814Z,5.53
2022-12-06T00:54:56.114Z,5.53
2022-12-06T00:58:03.623Z,5.45
2022-12-06T01:01:18.335Z,5.37
2022-12-06T01:04:24.129Z,5.31
2022-12-06T01:07:32.798Z,5.36
2022-12-06T01:10:39.580Z,5.29
2022-12-06T01:13:46.129Z,5.19
2022-12-06T01:16:53.719Z,5.15
2022-12-06T01:20:02.283Z,5.11
2022-12-06T01:23:06.494Z,5.08
2022-12-06T01:26:19.789Z,5.03
2022-12-06T01:29:26.328Z,4.95
2022-12-06T01:32:32.486Z,4.98
2022-12-06T01:35:43.047Z,4.97
2022-12-06T01:38:51.995Z,4.94
2022-12-06T01:41:59.658Z,4.88
2022-12-06T01:45:06.320Z,4.81
2022-12-06T01:48:11.658Z,4.78
2022-12-06T01:51:22.450Z,4.79
2022-12-06T01:54:29.205Z,4.74
2022-12-06T01:57:42.040Z,4.68
2022-12-06T02:00:47.965Z,4.63
2022-12-06T02:03:57.244Z,4.62
2022-12-06T02:07:04.069Z,4.58
2022-12-06T02:10:10.972Z,4.60
2022-12-06T02:13:18.616Z,4.56
2022-12-06T02:16:26.363Z,4.67
2022-12-06T02:19:48.308Z,4.70
2022-12-06T02:23:14.822Z,4.72
2022-12-06T02:26:39.659Z,4.67
2022-12-06T02:29:48.994Z,4.66
2022-12-06T02:33:01.256Z,4.64
2022-12-06T02:36:18.759Z,4.60
2022-12-06T02:39:32.597Z,4.57
2022-12-06T02:42:50.212Z,4.65
2022-12-06T02:45:58.047Z,4.69
2022-12-06T02:49:07.881Z,4.66
2022-12-06T02:52:16.056Z,4.67
2022-12-06T02:55:24.920Z,4.57
2022-12-06T02:58:37.128Z,4.52
2022-12-06T03:01:49.420Z,4.49
2022-12-06T03:04:59.443Z,4.43
2022-12-06T03:08:08.040Z,4.50
2022-12-06T03:11:15.895Z,4.48
2022-12-06T03:14:28.725Z,4.52
2022-12-06T03:17:48.051Z,4.44
2022-12-06T03:21:00.386Z,4.49
2022-12-06T03:24:10.581Z,4.44
2022-12-06T03:27:18.922Z,4.41
2022-12-06T03:30:26.417Z,4.40
2022-12-06T03:33:38.580Z,4.35
2022-12-06T03:36:46.221Z,4.33
2022-12-06T03:40:12.272Z,4.37
2022-12-06T03:43:20.436Z,4.32
2022-12-06T03:46:39.648Z,4.28
2022-12-06T03:49:57.068Z,4.23
2022-12-06T03:53:04.479Z,4.27
2022-12-06T03:56:11.309Z,4.29
2022-12-06T03:59:18.553Z,4.32
2022-12-06T04:02:24.740Z,4.28
2022-12-06T04:05:34.916Z,4.22
2022-12-06T04:08:42.241Z,4.27
2022-12-06T04:11:48.584Z,4.21
2022-12-06T04:14:54.444Z,4.16
2022-12-06T04:18:19.643Z,4.18
2022-12-06T04:21:34.119Z,4.26
2022-12-06T04:24:42.374Z,4.24
2022-12-06T04:28:24.715Z,4.34
2022-12-06T04:31:52.482Z,4.38
2022-12-06T04:35:16.929Z,4.26
2022-12-06T04:38:41.255Z,4.23
2022-12-06T04:42:05.356Z,4.26
2022-12-06T04:45:12.420Z,4.28
2022-12-06T04:48:19.012Z,4.37
2022-12-06T04:51:27.121Z,4.30
2022-12-06T04:54:32.107Z,4.28
2022-12-06T04:57:38.514Z,4.29
2022-12-06T05:00:44.318Z,4.36
2022-12-06T05:03:53.877Z,4.41
2022-12-06T05:07:00.044Z,4.32
2022-12-06T05:10:10.201Z,4.28
2022-12-06T05:13:20.464Z,4.30
2022-12-06T05:16:28.515Z,4.32
2022-12-06T05:19:35.772Z,4.27
2022-12-06T05:22:42.047Z,4.26
2022-12-06T05:25:49.769Z,4.28
2022-12-06T05:28:57.781Z,4.31
2022-12-06T05:32:04.957Z,4.27
2022-12-06T05:35:12.908Z,4.31
2022-12-06T05:38:19.993Z,4.37
2022-12-06T05:41:25.792Z,4.33
2022-12-06T05:44:33.190Z,4.34
2022-12-06T05:47:41.276Z,4.45
2022-12-06T05:50:50.729Z,4.47
2022-12-06T05:53:58.059Z,4.26
2022-12-06T05:57:02.561Z,4.20
2022-12-06T06:00:07.676Z,4.24
2022-12-06T06:03:14.501Z,4.24
2022-12-06T06:06:20.093Z,4.23
2022-12-06T06:09:25.161Z,4.23
2022-12-06T06:12:30.279Z,4.25
2022-12-06T06:15:33.721Z,4.37
2022-12-06T06:18:37.265Z,4.29
2022-12-06T06:21:40.772Z,4.30
2022-12-06T06:24:43.802Z,4.38
2022-12-06T06:27:48.979Z,4.37
2022-12-06T06:30:53.631Z,4.36
2022-12-06T06:33:58.409Z,4.42
2022-12-06T06:37:02.652Z,4.36
2022-12-06T06:40:06.326Z,4.45
2022-12-06T06:43:18.814Z,4.35
2022-12-06T06:46:22.992Z,4.29
2022-12-06T06:49:27.818Z,4.28
2022-12-06T06:52:32.174Z,4.27
2022-12-06T06:55:36.608Z,4.25
2022-12-06T06:58:40.198Z,4.31
2022-12-06T07:01:43.572Z,4.41
2022-12-06T07:04:48.440Z,4.41
2022-12-06T07:07:53.327Z,4.43
2022-12-06T07:10:57.686Z,4.32
2022-12-06T07:14:03.001Z,4.29
2022-12-06T07:17:07.208Z,4.29
2022-12-06T07:20:10.888Z,4.31
2022-12-06T07:23:14.197Z,4.34
2022-12-06T07:26:22.126Z,4.39
2022-12-06T07:29:25.591Z,4.50
2022-12-06T07:32:29.860Z,4.52
2022-12-06T07:36:03.734Z,4.44
2022-12-06T07:38:57.659Z,4.46
2022-12-06T07:42:19.673Z,4.48
2022-12-06T07:45:23.332Z,4.52
2022-12-06T07:48:28.528Z,4.51
2022-12-06T07:51:32.413Z,4.45
2022-12-06T07:54:36.010Z,4.46
2022-12-06T07:57:43.463Z,4.53
2022-12-06T08:00:48.958Z,4.60
2022-12-06T08:03:56.407Z,4.47
2022-12-06T08:07:01.181Z,4.47
2022-12-06T08:10:05.985Z,4.58
2022-12-06T08:13:09.519Z,4.68
2022-12-06T08:16:14.401Z,4.74
2022-12-06T08:19:19.460Z,4.80
2022-12-06T08:22:24.322Z,4.73
2022-12-06T08:25:28.257Z,4.90
2022-12-06T08:28:32.898Z,4.81
2022-12-06T08:31:37.018Z,4.64
2022-12-06T08:34:40.745Z,4.59
2022-12-06T08:37:45.098Z,4.59
2022-12-06T08:40:49.206Z,4.69
2022-12-06T08:43:52.059Z,4.75
2022-12-06T08:46:55.878Z,4.91
2022-12-06T08:49:59.596Z,4.99
2022-12-06T08:53:03.544Z,5.12
2022-12-06T08:56:06.159Z,5.39
2022-12-06T08:59:09.769Z,5.30
2022-12-06T09:02:13.476Z,5.50
2022-12-06T09:05:16.779Z,5.60
2022-12-06T09:08:21.437Z,5.43
2022-12-06T09:11:27.090Z,5.40
2022-12-06T09:14:32.441Z,5.22
2022-12-06T09:17:36.743Z,4.96
2022-12-06T09:20:40.721Z,4.89
2022-12-06T09:23:44.706Z,5.05
2022-12-06T09:26:52.086Z,4.88
2022-12-06T09:29:56.246Z,4.95
2022-12-06T09:32:59.753Z,4.98
2022-12-06T09:36:14.323Z,5.16
2022-12-06T09:39:25.161Z,5.24
2022-12-06T09:42:38.617Z,5.50
2022-12-06T09:46:14.603Z,5.55
2022-12-06T09:49:20.641Z,5.78
2022-12-06T09:52:27.214Z,5.69
2022-12-06T09:55:42.875Z,5.69
2022-12-06T09:58:51.881Z,5.62
2022-12-06T10:02:14.006Z,5.55
2022-12-06T10:05:20.968Z,5.71
2022-12-06T10:08:36.048Z,5.66
2022-12-06T10:11:42.885Z,5.73
2022-12-06T10:15:04.153Z,5.99
2022-12-06T10:18:27.273Z,5.91
2022-12-06T10:21:43.659Z,6.06
2022-12-06T10:25:19.801Z,6.05
2022-12-06T10:28:38.591Z,6.22
2022-12-06T10:31:42.884Z,6.31
2022-12-06T10:35:00.583Z,5.95
2022-12-06T10:38:23.380Z,5.55
2022-12-06T10:41:33.080Z,5.38
2022-12-06T10:44:44.947Z,5.21
2022-12-06T10:47:48.351Z,5.24
2022-12-06T10:50:57.168Z,5.37
2022-12-06T10:54:05.061Z,5.41
2022-12-06T10:57:14.369Z,5.52
2022-12-06T11:00:22.810Z,5.66
2022-12-06T11:03:30.486Z,5.72
2022-12-06T11:06:38.569Z,5.89
2022-12-06T11:09:46.942Z,5.80
2022-12-06T11:12:55.951Z,5.82
2022-12-06T11:16:06.334Z,5.96
2022-12-06T11:19:16.242Z,5.97
2022-12-06T11:22:29.344Z,6.08
2022-12-06T11:25:41.478Z,5.94
2022-12-06T11:28:57.005Z,6.03
2022-12-06T11:32:08.010Z,6.23
2022-12-06T11:35:16.593Z,6.39
2022-12-06T11:38:19.174Z,6.59
2022-12-06T11:41:25.403Z,6.44
2022-12-06T11:44:36.523Z,6.69
2022-12-06T11:47:39.663Z,6.80
2022-12-06T11:50:43.277Z,6.36
2022-12-06T11:53:53.012Z,6.16
2022-12-06T11:56:59.447Z,6.10
2022-12-06T12:00:07.422Z,5.97
2022-12-06T12:03:28.529Z,5.84
2022-12-06T12:06:33.181Z,5.84
2022-12-06T12:09:45.297Z,5.82
2022-12-06T12:13:07.952Z,5.95
2022-12-06T12:16:22.720Z,6.11
2022-12-06T12:19:34.825Z,6.07
2022-12-06T12:22:41.296Z,5.80
2022-12-06T12:25:58.052Z,5.77
2022-12-06T12:29:12.346Z,5.69
2022-12-06T12:32:18.511Z,5.82
2022-12-06T12:35:21.454Z,5.91
2022-12-06T12:38:34.251Z,5.92
2022-12-06T12:41:41.431Z,5.85
2022-12-06T12:44:46.268Z,5.83
2022-12-06T12:47:58.221Z,6.11
2022-12-06T12:51:02.859Z,5.98
2022-12-06T12:54:18.316Z,5.87
2022-12-06T12:57:21.146Z,5.79
2022-12-06T13:00:29.278Z,5.81
2022-12-06T13:03:50.872Z,6.15
2022-12-06T13:07:03.519Z,6.28
2022-12-06T13:10:12.323Z,6.17
2022-12-06T13:13:17.365Z,6.05
2022-12-06T13:16:28.258Z,5.98
2022-12-06T13:19:35.917Z,6.14
2022-12-06T13:22:45.326Z,6.19
2022-12-06T13:25:53.064Z,6.40
2022-12-06T13:29:05.099Z,6.08
2022-12-06T13:32:20.598Z,6.07
2022-12-06T13:35:23.489Z,6.02
2022-12-06T13:38:30.793Z,6.00
2022-12-06T13:41:54.274Z,5.85
2022-12-06T13:45:00.510Z,5.87
2022-12-06T13:48:04.094Z,5.90
2022-12-06T13:51:33.307Z,5.95
2022-12-06T13:54:37.624Z,5.87
2022-12-06T13:57:42.083Z,5.99
2022-12-06T14:00:49.515Z,5.94
2022-12-06T14:03:56.092Z,5.80
2022-12-06T14:07:03.754Z,5.58
2022-12-06T14:10:13.676Z,5.37
2022-12-06T14:13:19.135Z,5.25
2022-12-06T14:16:35.018Z,5.28
2022-12-06T14:19:45.581Z,5.14
2022-12-06T14:22:49.523Z,5.13
2022-12-06T14:25:52.877Z,5.16
2022-12-06T14:28:59.077Z,5.10
2022-12-06T14:32:02.482Z,5.08
2022-12-06T14:35:09.274Z,5.05
2022-12-06T14:38:24.124Z,4.91
2022-12-06T14:41:49.231Z,4.78
2022-12-06T14:45:00.376Z,4.63
2022-12-06T14:48:06.439Z,4.57
2022-12-06T14:51:23.055Z,4.69
2022-12-06T14:54:26.983Z,4.52
2022-12-06T14:57:32.289Z,4.65
2022-12-06T15:00:39.120Z,4.50
2022-12-06T15:03:42.981Z,4.24
2022-12-06T15:06:54.802Z,4.17
2022-12-06T15:10:07.440Z,4.21
2022-12-06T15:13:17.369Z,4.19
2022-12-06T15:16:21.146Z,4.31
2022-12-06T15:19:25.908Z,4.62
2022-12-06T15:22:29.751Z,4.58
2022-12-06T15:25:33.532Z,4.48
2022-12-06T15:28:36.911Z,4.45
2022-12-06T15:31:42.601Z,4.49
2022-12-06T15:34:46.679Z,4.23
2022-12-06T15:37:51.833Z,3.96
2022-12-06T15:40:56.682Z,3.93
2022-12-06T15:44:00.893Z,3.85
2022-12-06T15:47:04.059Z,3.87
2022-12-06T15:50:08.325Z,3.91
2022-12-06T15:53:16.418Z,4.33
2022-12-06T15:56:23.340Z,4.45
2022-12-06T15:59:29.322Z,4.56
2022-12-06T16:02:35.770Z,4.50
2022-12-06T16:05:41.026Z,4.24
2022-12-06T16:08:45.130Z,4.27
2022-12-06T16:11:51.452Z,4.19
2022-12-06T16:14:54.685Z,4.21
2022-12-06T16:17:59.703Z,4.08
2022-12-06T16:21:07.950Z,4.05
2022-12-06T16:24:14.875Z,4.03
2022-12-06T16:27:19.106Z,3.84
2022-12-06T16:30:34.578Z,3.93
2022-12-06T16:33:40.541Z,3.97
2022-12-06T16:36:56.485Z,4.10
2022-12-06T16:40:01.453Z,4.15
2022-12-06T16:43:09.002Z,3.98
2022-12-06T16:46:21.037Z,3.90
2022-12-06T16:52:54.687Z,3.62
2022-12-06T16:56:02.035Z,3.73
2022-12-06T16:59:06.872Z,3.80
2022-12-06T17:02:32.336Z,3.79
2022-12-06T17:05:39.106Z,3.88
2022-12-06T17:08:44.163Z,3.77
2022-12-06T17:12:07.217Z,3.60
2022-12-06T17:15:16.016Z,3.72
2022-12-06T17:18:22.612Z,3.67
2022-12-06T17:21:31.293Z,3.49
2022-12-06T17:24:40.559Z,3.77
2022-12-06T17:27:51.926Z,3.74
2022-12-06T17:31:00.461Z,3.57
2022-12-06T17:34:11.993Z,3.53
2022-12-06T17:37:19.841Z,3.31
2022-12-06T17:40:31.029Z,3.35
2022-12-06T17:43:37.556Z,3.14
2022-12-06T17:46:48.529Z,3.02
2022-12-06T17:49:57.585Z,2.88
2022-12-06T17:53:06.294Z,3.14
2022-12-06T17:56:33.566Z,3.08
2022-12-06T17:59:41.876Z,3.15
2022-12-06T18:02:50.503Z,3.20
2022-12-06T18:06:00.606Z,3.46
2022-12-06T18:09:07.291Z,3.48
2022-12-06T18:12:15.704Z,3.52
2022-12-06T18:15:41.630Z,3.61
2022-12-06T18:18:49.859Z,3.57
2022-12-06T18:21:56.180Z,3.55
2022-12-06T18:25:05.967Z,3.45
2022-12-06T18:28:14.353Z,3.50
2022-12-06T18:31:22.803Z,3.43
2022-12-06T18:34:30.646Z,3.29
2022-12-06T18:37:39.436Z,3.23
2022-12-06T18:40:44.699Z,3.15
2022-12-06T18:43:52.669Z,2.79
2022-12-06T18:46:58.865Z,2.54
2022-12-06T18:50:10.068Z,2.36
2022-12-06T18:53:20.512Z,2.24
2022-12-06T18:56:28.512Z,2.18
2022-12-06T18:59:39.634Z,2.06
2022-12-06T19:02:47.795Z,2.10
2022-12-06T19:06:03.967Z,2.35
2022-12-06T19:09:10.191Z,2.14
2022-12-06T19:12:13.545Z,2.37
2022-12-06T19:15:19.486Z,2.53
2022-12-06T19:18:24.646Z,2.68
2022-12-06T19:21:37.360Z,2.75
2022-12-06T19:24:44.301Z,2.77
2022-12-06T19:27:51.259Z,2.73
2022-12-06T19:31:01.414Z,2.54
2022-12-06T19:34:07.227Z,2.58
2022-12-06T19:37:12.414Z,2.65
2022-12-06T19:40:17.031Z,2.85
2022-12-06T19:43:45.494Z,3.10
2022-12-06T19:46:54.190Z,3.11
2022-12-06T19:49:59.909Z,3.08
2022-12-06T19:53:07.017Z,3.15
2022-12-06T19:56:14.210Z,3.22
2022-12-06T19:59:23.863Z,3.20
2022-12-06T20:02:28.149Z,3.10
2022-12-06T20:05:32.458Z,2.98
2022-12-06T20:08:39.673Z,3.02
2022-12-06T20:12:03.911Z,3.03
2022-12-06T20:15:08.735Z,3.22
2022-12-06T20:18:16.751Z,3.39
2022-12-06T20:21:21.018Z,3.44
2022-12-06T20:24:28.112Z,3.54
2022-12-06T20:27:53.526Z,3.57
2022-12-06T20:30:57.951Z,3.54
2022-12-06T20:34:03.348Z,3.55
2022-12-06T20:37:08.210Z,3.48
2022-12-06T20:40:12.720Z,3.42
2022-12-06T20:43:18.270Z,3.36
2022-12-06T20:46:26.289Z,3.24
2022-12-06T20:49:31.216Z,3.15
2022-12-06T20:52:36.957Z,3.08
2022-12-06T20:55:44.226Z,2.94
2022-12-06T20:58:51.445Z,2.73
2022-12-06T21:01:57.573Z,2.61
2022-12-06T21:05:04.726Z,2.44
2022-12-06T21:08:10.730Z,2.28
2022-12-06T21:11:24.647Z,2.19
2022-12-06T21:14:32.686Z,2.02
2022-12-06T21:17:39.363Z,1.87
2022-12-06T21:20:46.256Z,1.77
2022-12-06T21:23:52.844Z,1.68
2022-12-06T21:26:57.433Z,1.59
2022-12-06T21:30:04.974Z,1.49
2022-12-06T21:33:12.020Z,1.41
2022-12-06T21:36:19.987Z,1.31
2022-12-06T21:39:25.984Z,1.26
2022-12-06T21:42:31.284Z,1.21
2022-12-06T21:45:38.467Z,1.14
2022-12-06T21:48:44.602Z,1.10
2022-12-06T21:51:55.036Z,1.18
2022-12-06T21:55:05.340Z,1.52
2022-12-06T21:58:13.275Z,1.64
2022-12-06T22:01:26.723Z,1.69
2022-12-06T22:04:35.364Z,1.40
2022-12-06T22:07:40.757Z,1.21
2022-12-06T22:10:47.492Z,1.07
2022-12-06T22:13:53.340Z,0.99
2022-12-06T22:17:00.111Z,1.01
2022-12-06T22:20:05.528Z,1.13
2022-12-06T22:23:10.322Z,1.13
2022-12-06T22:26:18.026Z,1.18
2022-12-06T22:29:25.405Z,1.21
2022-12-06T22:32:34.097Z,1.27
2022-12-06T22:35:39.006Z,1.31
2022-12-06T22:38:43.649Z,1.41
2022-12-06T22:41:48.113Z,1.47
2022-12-06T22:44:55.177Z,1.50
2022-12-06T22:48:02.294Z,1.51
2022-12-06T22:51:10.640Z,1.50
2022-12-06T22:54:17.964Z,1.60
2022-12-06T22:57:24.241Z,1.66
2022-12-06T23:00:29.627Z,1.73
2022-12-06T23:03:35.544Z,1.78
2022-12-06T23:06:40.917Z,1.83
2022-12-06T23:09:45.530Z,1.92
2022-12-06T23:12:50.657Z,1.95
2022-12-06T23:15:58.694Z,1.99
2022-12-06T23:19:06.422Z,2.02
2022-12-06T23:22:16.135Z,2.02
2022-12-06T23:25:26.277Z,2.06
2022-12-06T23:28:32.448Z,2.09
2022-12-06T23:31:42.127Z,2.11
2022-12-06T23:34:47.946Z,2.08
2022-12-06T23:37:56.913Z,2.06
2022-12-06T23:41:11.083Z,1.94
2022-12-06T23:44:17.108Z,1.75
2022-12-06T23:47:23.056Z,1.64
2022-12-06T23:50:28.401Z,1.84
2022-12-06T23:53:35.267Z,1.70
2022-12-06T23:56:43.548Z,1.68
2022-12-06T23:59:47.872Z,1.70
